sensor_id;sensor_type;location;lat;lon;timestamp;temperature;humidity
22738;DHT22;11536;50.860;4.286;2022-11-13T00:00:57;10.40;99.90
22738;DHT22;11536;50.860;4.286;2022-11-13T00:03:23;10.40;99.90
22738;DHT22;11536;50.860;4.286;2022-11-13T00:05:58;10.30;99.90
22738;DHT22;11536;50.860;4.286;2022-11-13T00:08:24;10.30;99.90
22738;DHT22;11536;50.860;4.286;2022-11-13T00:10:49;10.30;99.90
22738;DHT22;11536;50.860;4.286;2022-11-13T00:13:15;10.30;99.90
22738;DHT22;11536;50.860;4.286;2022-11-13T00:15:40;10.20;99.90
22738;DHT22;11536;50.860;4.286;2022-11-13T00:18:06;10.20;99.90
22738;DHT22;11536;50.860;4.286;2022-11-13T00:20:32;10.20;99.90
22738;DHT22;11536;50.860;4.286;2022-11-13T00:22:57;10.20;99.90
22738;DHT22;11536;50.860;4.286;2022-11-13T00:25:23;10.20;99.90
22738;DHT22;11536;50.860;4.286;2022-11-13T00:27:48;10.20;99.90
22738;DHT22;11536;50.860;4.286;2022-11-13T00:30:14;10.10;99.90
22738;DHT22;11536;50.860;4.286;2022-11-13T00:32:40;10.10;99.90
22738;DHT22;11536;50.860;4.286;2022-11-13T00:35:06;10.10;99.90
22738;DHT22;11536;50.860;4.286;2022-11-13T00:37:31;10.10;99.90
22738;DHT22;11536;50.860;4.286;2022-11-13T00:39:57;10.00;99.90
22738;DHT22;11536;50.860;4.286;2022-11-13T00:42:22;10.00;99.90
22738;DHT22;11536;50.860;4.286;2022-11-13T00:44:48;10.10;99.90
22738;DHT22;11536;50.860;4.286;2022-11-13T00:47:13;10.00;99.90
22738;DHT22;11536;50.860;4.286;2022-11-13T00:49:39;10.00;99.90
22738;DHT22;11536;50.860;4.286;2022-11-13T00:52:05;9.90;99.90
22738;DHT22;11536;50.860;4.286;2022-11-13T00:54:30;9.90;99.90
22738;DHT22;11536;50.860;4.286;2022-11-13T00:56:56;9.90;99.90
22738;DHT22;11536;50.860;4.286;2022-11-13T00:59:21;9.90;99.90
22738;DHT22;11536;50.860;4.286;2022-11-13T01:01:47;9.90;99.90
22738;DHT22;11536;50.860;4.286;2022-11-13T01:04:12;9.90;99.90
22738;DHT22;11536;50.860;4.286;2022-11-13T01:06:38;9.80;99.90
22738;DHT22;11536;50.860;4.286;2022-11-13T01:09:03;9.80;99.90
22738;DHT22;11536;50.860;4.286;2022-11-13T01:11:29;9.80;99.90
22738;DHT22;11536;50.860;4.286;2022-11-13T01:13:55;9.80;99.90
22738;DHT22;11536;50.860;4.286;2022-11-13T01:16:23;9.80;99.90
22738;DHT22;11536;50.860;4.286;2022-11-13T01:18:49;9.80;99.90
22738;DHT22;11536;50.860;4.286;2022-11-13T01:21:20;9.80;99.90
22738;DHT22;11536;50.860;4.286;2022-11-13T01:23:46;9.80;99.90
22738;DHT22;11536;50.860;4.286;2022-11-13T01:26:14;9.80;99.90
22738;DHT22;11536;50.860;4.286;2022-11-13T01:28:41;9.80;99.90
22738;DHT22;11536;50.860;4.286;2022-11-13T01:31:10;9.80;99.90
22738;DHT22;11536;50.860;4.286;2022-11-13T01:33:36;9.80;99.90
22738;DHT22;11536;50.860;4.286;2022-11-13T01:36:04;9.80;99.90
22738;DHT22;11536;50.860;4.286;2022-11-13T01:38:31;9.80;99.90
22738;DHT22;11536;50.860;4.286;2022-11-13T01:40:57;9.80;99.90
22738;DHT22;11536;50.860;4.286;2022-11-13T01:43:24;9.70;99.90
22738;DHT22;11536;50.860;4.286;2022-11-13T01:48:37;9.70;99.90
22738;DHT22;11536;50.860;4.286;2022-11-13T01:51:10;9.70;99.90
22738;DHT22;11536;50.860;4.286;2022-11-13T01:53:37;9.70;99.90
22738;DHT22;11536;50.860;4.286;2022-11-13T01:56:06;9.70;99.90
22738;DHT22;11536;50.860;4.286;2022-11-13T01:58:31;9.70;99.90
22738;DHT22;11536;50.860;4.286;2022-11-13T02:00:57;9.60;99.90
22738;DHT22;11536;50.860;4.286;2022-11-13T02:03:23;9.60;99.90
22738;DHT22;11536;50.860;4.286;2022-11-13T02:05:49;9.60;99.90
22738;DHT22;11536;50.860;4.286;2022-11-13T02:08:15;9.60;99.90
22738;DHT22;11536;50.860;4.286;2022-11-13T02:10:41;9.60;99.90
22738;DHT22;11536;50.860;4.286;2022-11-13T02:13:07;9.60;99.90
22738;DHT22;11536;50.860;4.286;2022-11-13T02:15:33;9.60;99.90
22738;DHT22;11536;50.860;4.286;2022-11-13T02:18:00;9.60;99.90
22738;DHT22;11536;50.860;4.286;2022-11-13T02:23:36;9.50;99.90
22738;DHT22;11536;50.860;4.286;2022-11-13T02:26:05;9.50;99.90
22738;DHT22;11536;50.860;4.286;2022-11-13T02:28:31;9.50;99.90
22738;DHT22;11536;50.860;4.286;2022-11-13T02:30:57;9.50;99.90
22738;DHT22;11536;50.860;4.286;2022-11-13T02:33:31;9.50;99.90
22738;DHT22;11536;50.860;4.286;2022-11-13T02:35:57;9.40;99.90
22738;DHT22;11536;50.860;4.286;2022-11-13T02:38:23;9.40;99.90
22738;DHT22;11536;50.860;4.286;2022-11-13T02:40:49;9.40;99.90
22738;DHT22;11536;50.860;4.286;2022-11-13T02:43:14;9.40;99.90
22738;DHT22;11536;50.860;4.286;2022-11-13T02:45:40;9.40;99.90
22738;DHT22;11536;50.860;4.286;2022-11-13T02:48:06;9.40;99.90
22738;DHT22;11536;50.860;4.286;2022-11-13T02:50:33;9.30;99.90
22738;DHT22;11536;50.860;4.286;2022-11-13T02:52:59;9.30;99.90
22738;DHT22;11536;50.860;4.286;2022-11-13T02:55:25;9.30;99.90
22738;DHT22;11536;50.860;4.286;2022-11-13T02:57:50;9.30;99.90
22738;DHT22;11536;50.860;4.286;2022-11-13T03:00:16;9.30;99.90
22738;DHT22;11536;50.860;4.286;2022-11-13T03:02:42;9.30;99.90
22738;DHT22;11536;50.860;4.286;2022-11-13T03:05:08;9.30;99.90
22738;DHT22;11536;50.860;4.286;2022-11-13T03:07:33;9.20;99.90
22738;DHT22;11536;50.860;4.286;2022-11-13T03:09:59;9.10;99.90
22738;DHT22;11536;50.860;4.286;2022-11-13T03:12:24;9.10;99.90
22738;DHT22;11536;50.860;4.286;2022-11-13T03:14:50;9.10;99.90
22738;DHT22;11536;50.860;4.286;2022-11-13T03:17:16;9.10;99.90
22738;DHT22;11536;50.860;4.286;2022-11-13T03:19:41;9.10;99.90
22738;DHT22;11536;50.860;4.286;2022-11-13T03:22:07;9.10;99.90
22738;DHT22;11536;50.860;4.286;2022-11-13T03:24:33;9.10;99.90
22738;DHT22;11536;50.860;4.286;2022-11-13T03:26:58;9.00;99.90
22738;DHT22;11536;50.860;4.286;2022-11-13T03:29:24;9.00;99.90
22738;DHT22;11536;50.860;4.286;2022-11-13T03:31:49;9.00;99.90
22738;DHT22;11536;50.860;4.286;2022-11-13T03:34:15;8.90;99.90
22738;DHT22;11536;50.860;4.286;2022-11-13T03:36:40;8.90;99.90
22738;DHT22;11536;50.860;4.286;2022-11-13T03:39:06;8.90;99.90
22738;DHT22;11536;50.860;4.286;2022-11-13T03:41:31;8.90;99.90
22738;DHT22;11536;50.860;4.286;2022-11-13T03:43:57;8.90;99.90
22738;DHT22;11536;50.860;4.286;2022-11-13T03:46:22;8.90;99.90
22738;DHT22;11536;50.860;4.286;2022-11-13T03:48:48;8.90;99.90
22738;DHT22;11536;50.860;4.286;2022-11-13T03:51:14;8.90;99.90
22738;DHT22;11536;50.860;4.286;2022-11-13T03:53:39;8.80;99.90
22738;DHT22;11536;50.860;4.286;2022-11-13T03:56:05;8.80;99.90
22738;DHT22;11536;50.860;4.286;2022-11-13T03:58:31;8.80;99.90
22738;DHT22;11536;50.860;4.286;2022-11-13T04:00:57;8.80;99.90
22738;DHT22;11536;50.860;4.286;2022-11-13T04:03:22;8.80;99.90
22738;DHT22;11536;50.860;4.286;2022-11-13T04:05:49;8.80;99.90
22738;DHT22;11536;50.860;4.286;2022-11-13T04:08:15;8.80;99.90
22738;DHT22;11536;50.860;4.286;2022-11-13T04:10:42;8.80;99.90
22738;DHT22;11536;50.860;4.286;2022-11-13T04:13:07;8.80;99.90
22738;DHT22;11536;50.860;4.286;2022-11-13T04:15:33;8.80;99.90
22738;DHT22;11536;50.860;4.286;2022-11-13T04:17:59;8.80;99.90
22738;DHT22;11536;50.860;4.286;2022-11-13T04:20:24;8.80;99.90
22738;DHT22;11536;50.860;4.286;2022-11-13T04:22:52;8.80;99.90
22738;DHT22;11536;50.860;4.286;2022-11-13T04:25:18;8.90;99.90
22738;DHT22;11536;50.860;4.286;2022-11-13T04:27:43;8.90;99.90
22738;DHT22;11536;50.860;4.286;2022-11-13T04:30:09;8.90;99.90
22738;DHT22;11536;50.860;4.286;2022-11-13T04:32:35;8.90;99.90
22738;DHT22;11536;50.860;4.286;2022-11-13T04:35:01;8.90;99.90
22738;DHT22;11536;50.860;4.286;2022-11-13T04:37:27;8.90;99.90
22738;DHT22;11536;50.860;4.286;2022-11-13T04:39:52;8.90;99.90
22738;DHT22;11536;50.860;4.286;2022-11-13T04:42:18;8.90;99.90
22738;DHT22;11536;50.860;4.286;2022-11-13T04:45:02;8.90;99.90
22738;DHT22;11536;50.860;4.286;2022-11-13T04:47:28;8.90;99.90
22738;DHT22;11536;50.860;4.286;2022-11-13T04:49:53;8.90;99.90
22738;DHT22;11536;50.860;4.286;2022-11-13T04:52:19;8.90;99.90
22738;DHT22;11536;50.860;4.286;2022-11-13T04:54:44;8.90;99.90
22738;DHT22;11536;50.860;4.286;2022-11-13T04:57:10;8.90;99.90
22738;DHT22;11536;50.860;4.286;2022-11-13T04:59:35;8.90;99.90
22738;DHT22;11536;50.860;4.286;2022-11-13T05:02:01;8.80;99.90
22738;DHT22;11536;50.860;4.286;2022-11-13T05:04:27;8.80;99.90
22738;DHT22;11536;50.860;4.286;2022-11-13T05:06:52;8.80;99.90
22738;DHT22;11536;50.860;4.286;2022-11-13T05:09:18;8.80;99.90
22738;DHT22;11536;50.860;4.286;2022-11-13T05:11:43;8.80;99.90
22738;DHT22;11536;50.860;4.286;2022-11-13T05:14:12;8.80;99.90
22738;DHT22;11536;50.860;4.286;2022-11-13T05:16:38;8.80;99.90
22738;DHT22;11536;50.860;4.286;2022-11-13T05:19:04;8.80;99.90
22738;DHT22;11536;50.860;4.286;2022-11-13T05:21:37;8.80;99.90
22738;DHT22;11536;50.860;4.286;2022-11-13T05:24:03;8.80;99.90
22738;DHT22;11536;50.860;4.286;2022-11-13T05:26:29;8.70;99.90
22738;DHT22;11536;50.860;4.286;2022-11-13T05:28:59;8.70;99.90
22738;DHT22;11536;50.860;4.286;2022-11-13T05:31:25;8.70;99.90
22738;DHT22;11536;50.860;4.286;2022-11-13T05:33:51;8.70;99.90
22738;DHT22;11536;50.860;4.286;2022-11-13T05:36:18;8.70;99.90
22738;DHT22;11536;50.860;4.286;2022-11-13T05:38:44;8.60;99.90
22738;DHT22;11536;50.860;4.286;2022-11-13T05:41:15;8.60;99.90
22738;DHT22;11536;50.860;4.286;2022-11-13T05:43:41;8.60;99.90
22738;DHT22;11536;50.860;4.286;2022-11-13T05:46:22;8.60;99.90
22738;DHT22;11536;50.860;4.286;2022-11-13T05:48:52;8.60;99.90
22738;DHT22;11536;50.860;4.286;2022-11-13T05:51:20;8.60;99.90
22738;DHT22;11536;50.860;4.286;2022-11-13T05:53:46;8.50;99.90
22738;DHT22;11536;50.860;4.286;2022-11-13T05:56:14;8.50;99.90
22738;DHT22;11536;50.860;4.286;2022-11-13T05:58:42;8.50;99.90
22738;DHT22;11536;50.860;4.286;2022-11-13T06:01:19;8.50;99.90
22738;DHT22;11536;50.860;4.286;2022-11-13T06:03:45;8.40;99.90
22738;DHT22;11536;50.860;4.286;2022-11-13T06:06:13;8.40;99.90
22738;DHT22;11536;50.860;4.286;2022-11-13T06:08:40;8.40;99.90
22738;DHT22;11536;50.860;4.286;2022-11-13T06:11:08;8.30;99.90
22738;DHT22;11536;50.860;4.286;2022-11-13T06:13:34;8.30;99.90
22738;DHT22;11536;50.860;4.286;2022-11-13T06:16:02;8.30;99.90
22738;DHT22;11536;50.860;4.286;2022-11-13T06:18:31;8.30;99.90
22738;DHT22;11536;50.860;4.286;2022-11-13T06:21:01;8.30;99.90
22738;DHT22;11536;50.860;4.286;2022-11-13T06:23:27;8.30;99.90
22738;DHT22;11536;50.860;4.286;2022-11-13T06:25:58;8.20;99.90
22738;DHT22;11536;50.860;4.286;2022-11-13T06:28:23;8.20;99.90
22738;DHT22;11536;50.860;4.286;2022-11-13T06:30:49;8.20;99.90
22738;DHT22;11536;50.860;4.286;2022-11-13T06:33:15;8.20;99.90
22738;DHT22;11536;50.860;4.286;2022-11-13T06:35:40;8.20;99.90
22738;DHT22;11536;50.860;4.286;2022-11-13T06:38:06;8.10;99.90
22738;DHT22;11536;50.860;4.286;2022-11-13T06:40:31;8.10;99.90
22738;DHT22;11536;50.860;4.286;2022-11-13T06:42:57;8.10;99.90
22738;DHT22;11536;50.860;4.286;2022-11-13T06:45:22;8.10;99.90
22738;DHT22;11536;50.860;4.286;2022-11-13T06:47:48;8.10;99.90
22738;DHT22;11536;50.860;4.286;2022-11-13T06:50:13;8.00;99.90
22738;DHT22;11536;50.860;4.286;2022-11-13T06:52:39;8.00;99.90
22738;DHT22;11536;50.860;4.286;2022-11-13T06:55:05;8.00;99.90
22738;DHT22;11536;50.860;4.286;2022-11-13T06:57:30;8.00;99.90
22738;DHT22;11536;50.860;4.286;2022-11-13T06:59:56;8.00;99.90
22738;DHT22;11536;50.860;4.286;2022-11-13T07:02:21;8.00;99.90
22738;DHT22;11536;50.860;4.286;2022-11-13T07:04:47;7.90;99.90
22738;DHT22;11536;50.860;4.286;2022-11-13T07:07:12;7.90;99.90
22738;DHT22;11536;50.860;4.286;2022-11-13T07:09:38;7.90;99.90
22738;DHT22;11536;50.860;4.286;2022-11-13T07:12:04;7.80;99.90
22738;DHT22;11536;50.860;4.286;2022-11-13T07:14:29;7.80;99.90
22738;DHT22;11536;50.860;4.286;2022-11-13T07:16:55;7.80;99.90
22738;DHT22;11536;50.860;4.286;2022-11-13T07:19:20;7.80;99.90
22738;DHT22;11536;50.860;4.286;2022-11-13T07:21:46;7.80;99.90
22738;DHT22;11536;50.860;4.286;2022-11-13T07:24:11;7.80;99.90
22738;DHT22;11536;50.860;4.286;2022-11-13T07:26:37;7.70;99.90
22738;DHT22;11536;50.860;4.286;2022-11-13T07:29:03;7.70;99.90
22738;DHT22;11536;50.860;4.286;2022-11-13T07:31:28;7.70;99.90
22738;DHT22;11536;50.860;4.286;2022-11-13T07:33:54;7.80;99.90
22738;DHT22;11536;50.860;4.286;2022-11-13T07:36:19;7.80;99.90
22738;DHT22;11536;50.860;4.286;2022-11-13T07:38:45;7.80;99.90
22738;DHT22;11536;50.860;4.286;2022-11-13T07:41:10;7.70;99.90
22738;DHT22;11536;50.860;4.286;2022-11-13T07:43:36;7.80;99.90
22738;DHT22;11536;50.860;4.286;2022-11-13T07:46:02;7.80;99.90
22738;DHT22;11536;50.860;4.286;2022-11-13T07:48:28;7.80;99.90
22738;DHT22;11536;50.860;4.286;2022-11-13T07:50:53;7.80;99.90
22738;DHT22;11536;50.860;4.286;2022-11-13T07:53:20;7.80;99.90
22738;DHT22;11536;50.860;4.286;2022-11-13T07:55:46;7.80;99.90
22738;DHT22;11536;50.860;4.286;2022-11-13T07:58:12;7.80;99.90
22738;DHT22;11536;50.860;4.286;2022-11-13T08:00:38;7.80;99.90
22738;DHT22;11536;50.860;4.286;2022-11-13T08:03:05;7.80;99.90
22738;DHT22;11536;50.860;4.286;2022-11-13T08:05:31;7.90;99.90
22738;DHT22;11536;50.860;4.286;2022-11-13T08:07:57;7.90;99.90
22738;DHT22;11536;50.860;4.286;2022-11-13T08:10:23;7.90;99.90
22738;DHT22;11536;50.860;4.286;2022-11-13T08:12:48;8.00;99.90
22738;DHT22;11536;50.860;4.286;2022-11-13T08:15:14;8.00;99.90
22738;DHT22;11536;50.860;4.286;2022-11-13T08:17:39;8.00;99.90
22738;DHT22;11536;50.860;4.286;2022-11-13T08:20:06;8.00;99.90
22738;DHT22;11536;50.860;4.286;2022-11-13T08:22:32;8.10;99.90
22738;DHT22;11536;50.860;4.286;2022-11-13T08:24:57;8.10;99.90
22738;DHT22;11536;50.860;4.286;2022-11-13T08:27:23;8.10;99.90
22738;DHT22;11536;50.860;4.286;2022-11-13T08:29:50;8.20;99.90
22738;DHT22;11536;50.860;4.286;2022-11-13T08:32:17;8.20;99.90
22738;DHT22;11536;50.860;4.286;2022-11-13T08:34:43;8.20;99.90
22738;DHT22;11536;50.860;4.286;2022-11-13T08:37:09;8.20;99.90
22738;DHT22;11536;50.860;4.286;2022-11-13T08:39:34;8.20;99.90
22738;DHT22;11536;50.860;4.286;2022-11-13T08:42:03;8.30;99.90
22738;DHT22;11536;50.860;4.286;2022-11-13T08:44:30;8.40;99.90
22738;DHT22;11536;50.860;4.286;2022-11-13T08:46:56;8.40;99.90
22738;DHT22;11536;50.860;4.286;2022-11-13T08:49:21;8.50;99.90
22738;DHT22;11536;50.860;4.286;2022-11-13T08:51:47;8.50;99.90
22738;DHT22;11536;50.860;4.286;2022-11-13T08:54:12;8.50;99.90
22738;DHT22;11536;50.860;4.286;2022-11-13T08:56:38;8.60;99.90
22738;DHT22;11536;50.860;4.286;2022-11-13T08:59:04;8.60;99.90
22738;DHT22;11536;50.860;4.286;2022-11-13T09:01:29;8.60;99.90
22738;DHT22;11536;50.860;4.286;2022-11-13T09:03:55;8.60;99.90
22738;DHT22;11536;50.860;4.286;2022-11-13T09:06:20;8.70;99.90
22738;DHT22;11536;50.860;4.286;2022-11-13T09:08:46;8.70;99.90
22738;DHT22;11536;50.860;4.286;2022-11-13T09:11:11;8.80;99.90
22738;DHT22;11536;50.860;4.286;2022-11-13T09:13:37;8.80;99.90
22738;DHT22;11536;50.860;4.286;2022-11-13T09:16:03;8.80;99.90
22738;DHT22;11536;50.860;4.286;2022-11-13T09:18:29;8.90;99.90
22738;DHT22;11536;50.860;4.286;2022-11-13T09:20:58;9.00;99.90
22738;DHT22;11536;50.860;4.286;2022-11-13T09:23:25;9.00;99.90
22738;DHT22;11536;50.860;4.286;2022-11-13T09:25:50;9.10;99.90
22738;DHT22;11536;50.860;4.286;2022-11-13T09:28:16;9.10;99.90
22738;DHT22;11536;50.860;4.286;2022-11-13T09:30:42;9.20;99.90
22738;DHT22;11536;50.860;4.286;2022-11-13T09:33:09;9.30;99.90
22738;DHT22;11536;50.860;4.286;2022-11-13T09:35:35;9.40;99.90
22738;DHT22;11536;50.860;4.286;2022-11-13T09:38:06;9.50;99.90
22738;DHT22;11536;50.860;4.286;2022-11-13T09:40:40;9.60;99.90
22738;DHT22;11536;50.860;4.286;2022-11-13T09:43:54;9.70;99.90
22738;DHT22;11536;50.860;4.286;2022-11-13T09:46:37;9.80;99.90
22738;DHT22;11536;50.860;4.286;2022-11-13T09:49:21;9.90;99.90
22738;DHT22;11536;50.860;4.286;2022-11-13T09:51:58;10.00;99.90
22738;DHT22;11536;50.860;4.286;2022-11-13T09:54:26;10.10;99.90
22738;DHT22;11536;50.860;4.286;2022-11-13T10:02:34;10.50;99.90
22738;DHT22;11536;50.860;4.286;2022-11-13T10:05:51;10.60;99.90
22738;DHT22;11536;50.860;4.286;2022-11-13T10:08:24;10.70;99.90
22738;DHT22;11536;50.860;4.286;2022-11-13T10:13:43;10.90;99.90
22738;DHT22;11536;50.860;4.286;2022-11-13T10:19:29;11.00;99.90
22738;DHT22;11536;50.860;4.286;2022-11-13T10:22:03;11.10;99.90
22738;DHT22;11536;50.860;4.286;2022-11-13T10:24:49;11.30;99.90
22738;DHT22;11536;50.860;4.286;2022-11-13T10:27:16;11.40;99.90
22738;DHT22;11536;50.860;4.286;2022-11-13T10:29:42;11.50;99.90
22738;DHT22;11536;50.860;4.286;2022-11-13T10:34:40;11.60;99.90
22738;DHT22;11536;50.860;4.286;2022-11-13T10:37:21;11.70;99.90
22738;DHT22;11536;50.860;4.286;2022-11-13T10:39:50;11.80;99.90
22738;DHT22;11536;50.860;4.286;2022-11-13T10:42:21;11.80;99.90
22738;DHT22;11536;50.860;4.286;2022-11-13T10:44:53;11.90;99.90
22738;DHT22;11536;50.860;4.286;2022-11-13T10:47:23;12.00;99.90
22738;DHT22;11536;50.860;4.286;2022-11-13T10:49:49;12.00;99.90
22738;DHT22;11536;50.860;4.286;2022-11-13T10:52:20;12.10;99.90
22738;DHT22;11536;50.860;4.286;2022-11-13T10:54:46;12.10;99.90
22738;DHT22;11536;50.860;4.286;2022-11-13T10:59:50;12.30;99.90
22738;DHT22;11536;50.860;4.286;2022-11-13T11:02:17;12.30;99.90
22738;DHT22;11536;50.860;4.286;2022-11-13T11:04:42;12.40;99.90
22738;DHT22;11536;50.860;4.286;2022-11-13T11:07:22;12.40;99.90
22738;DHT22;11536;50.860;4.286;2022-11-13T11:09:49;12.50;99.90
22738;DHT22;11536;50.860;4.286;2022-11-13T11:12:18;12.60;99.90
22738;DHT22;11536;50.860;4.286;2022-11-13T11:17:48;12.70;99.90
22738;DHT22;11536;50.860;4.286;2022-11-13T11:20:27;12.80;99.90
22738;DHT22;11536;50.860;4.286;2022-11-13T11:23:17;12.80;99.90
22738;DHT22;11536;50.860;4.286;2022-11-13T11:25:53;12.80;99.90
22738;DHT22;11536;50.860;4.286;2022-11-13T11:31:15;12.90;99.90
22738;DHT22;11536;50.860;4.286;2022-11-13T11:33:56;12.90;99.90
22738;DHT22;11536;50.860;4.286;2022-11-13T11:36:33;13.00;99.90
22738;DHT22;11536;50.860;4.286;2022-11-13T11:39:26;13.20;99.90
22738;DHT22;11536;50.860;4.286;2022-11-13T11:47:38;13.50;99.90
22738;DHT22;11536;50.860;4.286;2022-11-13T11:50:13;13.60;99.90
22738;DHT22;11536;50.860;4.286;2022-11-13T11:52:56;13.70;99.90
22738;DHT22;11536;50.860;4.286;2022-11-13T12:01:43;14.40;99.90
22738;DHT22;11536;50.860;4.286;2022-11-13T12:09:26;15.30;99.90
22738;DHT22;11536;50.860;4.286;2022-11-13T12:12:19;15.40;99.90
22738;DHT22;11536;50.860;4.286;2022-11-13T12:17:40;15.80;99.90
22738;DHT22;11536;50.860;4.286;2022-11-13T12:20:51;16.00;99.90
22738;DHT22;11536;50.860;4.286;2022-11-13T12:28:51;16.30;99.90
22738;DHT22;11536;50.860;4.286;2022-11-13T12:31:44;16.50;99.90
22738;DHT22;11536;50.860;4.286;2022-11-13T12:39:56;16.90;99.90
22738;DHT22;11536;50.860;4.286;2022-11-13T12:42:34;17.00;99.90
22738;DHT22;11536;50.860;4.286;2022-11-13T12:47:42;17.30;99.90
22738;DHT22;11536;50.860;4.286;2022-11-13T12:50:29;17.30;99.90
22738;DHT22;11536;50.860;4.286;2022-11-13T12:53:03;17.30;99.90
22738;DHT22;11536;50.860;4.286;2022-11-13T12:55:34;17.40;99.90
22738;DHT22;11536;50.860;4.286;2022-11-13T13:00:55;17.40;99.90
22738;DHT22;11536;50.860;4.286;2022-11-13T13:09:04;17.70;99.90
22738;DHT22;11536;50.860;4.286;2022-11-13T13:11:48;17.80;99.90
22738;DHT22;11536;50.860;4.286;2022-11-13T13:17:17;17.90;99.90
22738;DHT22;11536;50.860;4.286;2022-11-13T13:19:43;17.90;99.90
22738;DHT22;11536;50.860;4.286;2022-11-13T13:22:10;17.90;99.90
22738;DHT22;11536;50.860;4.286;2022-11-13T13:24:38;17.90;99.90
22738;DHT22;11536;50.860;4.286;2022-11-13T13:27:25;17.90;99.90
22738;DHT22;11536;50.860;4.286;2022-11-13T13:29:51;18.00;99.90
22738;DHT22;11536;50.860;4.286;2022-11-13T13:35:28;18.20;99.90
22738;DHT22;11536;50.860;4.286;2022-11-13T13:43:46;18.30;99.90
22738;DHT22;11536;50.860;4.286;2022-11-13T13:46:26;18.30;99.90
22738;DHT22;11536;50.860;4.286;2022-11-13T13:48:56;18.30;99.90
22738;DHT22;11536;50.860;4.286;2022-11-13T13:51:53;18.30;99.90
22738;DHT22;11536;50.860;4.286;2022-11-13T13:54:24;18.30;99.90
22738;DHT22;11536;50.860;4.286;2022-11-13T13:56:51;18.30;99.90
22738;DHT22;11536;50.860;4.286;2022-11-13T13:59:20;18.30;99.90
22738;DHT22;11536;50.860;4.286;2022-11-13T14:01:59;18.20;99.90
22738;DHT22;11536;50.860;4.286;2022-11-13T14:04:27;18.10;99.90
22738;DHT22;11536;50.860;4.286;2022-11-13T14:06:57;18.00;99.90
22738;DHT22;11536;50.860;4.286;2022-11-13T14:09:28;17.90;99.90
22738;DHT22;11536;50.860;4.286;2022-11-13T14:12:02;17.80;99.90
22738;DHT22;11536;50.860;4.286;2022-11-13T14:14:27;17.80;99.90
22738;DHT22;11536;50.860;4.286;2022-11-13T14:16:55;17.70;99.90
22738;DHT22;11536;50.860;4.286;2022-11-13T14:19:21;17.60;99.90
22738;DHT22;11536;50.860;4.286;2022-11-13T14:21:49;17.50;99.90
22738;DHT22;11536;50.860;4.286;2022-11-13T14:24:31;17.60;99.90
22738;DHT22;11536;50.860;4.286;2022-11-13T14:27:00;17.70;99.90
22738;DHT22;11536;50.860;4.286;2022-11-13T14:29:34;17.70;99.90
22738;DHT22;11536;50.860;4.286;2022-11-13T14:32:08;17.50;99.90
22738;DHT22;11536;50.860;4.286;2022-11-13T14:34:36;17.40;99.90
22738;DHT22;11536;50.860;4.286;2022-11-13T14:39:52;17.20;99.90
22738;DHT22;11536;50.860;4.286;2022-11-13T14:42:21;17.10;99.90
22738;DHT22;11536;50.860;4.286;2022-11-13T14:44:48;17.00;99.90
22738;DHT22;11536;50.860;4.286;2022-11-13T14:47:23;16.90;99.90
22738;DHT22;11536;50.860;4.286;2022-11-13T14:49:49;16.90;99.90
22738;DHT22;11536;50.860;4.286;2022-11-13T14:52:26;16.80;99.90
22738;DHT22;11536;50.860;4.286;2022-11-13T14:55:05;16.70;99.90
22738;DHT22;11536;50.860;4.286;2022-11-13T14:57:32;16.60;99.90
22738;DHT22;11536;50.860;4.286;2022-11-13T15:00:18;16.50;99.90
22738;DHT22;11536;50.860;4.286;2022-11-13T15:02:50;16.40;99.90
22738;DHT22;11536;50.860;4.286;2022-11-13T15:05:15;16.30;99.90
22738;DHT22;11536;50.860;4.286;2022-11-13T15:07:41;16.20;99.90
22738;DHT22;11536;50.860;4.286;2022-11-13T15:10:12;16.10;99.90
22738;DHT22;11536;50.860;4.286;2022-11-13T15:12:39;16.00;99.90
22738;DHT22;11536;50.860;4.286;2022-11-13T15:15:05;15.90;99.90
22738;DHT22;11536;50.860;4.286;2022-11-13T15:17:31;15.80;99.90
22738;DHT22;11536;50.860;4.286;2022-11-13T15:19:57;15.80;99.90
22738;DHT22;11536;50.860;4.286;2022-11-13T15:22:22;15.70;99.90
22738;DHT22;11536;50.860;4.286;2022-11-13T15:24:48;15.60;99.90
22738;DHT22;11536;50.860;4.286;2022-11-13T15:27:17;15.50;99.90
22738;DHT22;11536;50.860;4.286;2022-11-13T15:29:43;15.50;99.90
22738;DHT22;11536;50.860;4.286;2022-11-13T15:32:11;15.40;99.90
22738;DHT22;11536;50.860;4.286;2022-11-13T15:34:37;15.30;99.90
22738;DHT22;11536;50.860;4.286;2022-11-13T15:37:14;15.30;99.90
22738;DHT22;11536;50.860;4.286;2022-11-13T15:39:40;15.20;99.90
22738;DHT22;11536;50.860;4.286;2022-11-13T15:42:10;15.10;99.90
22738;DHT22;11536;50.860;4.286;2022-11-13T15:44:36;15.00;99.90
22738;DHT22;11536;50.860;4.286;2022-11-13T15:47:02;15.00;99.90
22738;DHT22;11536;50.860;4.286;2022-11-13T15:49:27;14.90;99.90
22738;DHT22;11536;50.860;4.286;2022-11-13T15:51:53;14.80;99.90
22738;DHT22;11536;50.860;4.286;2022-11-13T15:56:52;14.60;99.90
22738;DHT22;11536;50.860;4.286;2022-11-13T15:59:17;14.50;99.90
22738;DHT22;11536;50.860;4.286;2022-11-13T16:01:43;14.50;99.90
22738;DHT22;11536;50.860;4.286;2022-11-13T16:04:09;14.40;99.90
22738;DHT22;11536;50.860;4.286;2022-11-13T16:06:38;14.30;99.90
22738;DHT22;11536;50.860;4.286;2022-11-13T16:09:04;14.20;99.90
22738;DHT22;11536;50.860;4.286;2022-11-13T16:11:32;14.10;99.90
22738;DHT22;11536;50.860;4.286;2022-11-13T16:13:58;14.10;99.90
22738;DHT22;11536;50.860;4.286;2022-11-13T16:16:32;14.00;99.90
22738;DHT22;11536;50.860;4.286;2022-11-13T16:18:58;13.90;99.90
22738;DHT22;11536;50.860;4.286;2022-11-13T16:21:24;13.80;99.90
22738;DHT22;11536;50.860;4.286;2022-11-13T16:23:50;13.70;99.90
22738;DHT22;11536;50.860;4.286;2022-11-13T16:26:19;13.70;99.90
22738;DHT22;11536;50.860;4.286;2022-11-13T16:28:45;13.60;99.90
22738;DHT22;11536;50.860;4.286;2022-11-13T16:31:12;13.60;99.90
22738;DHT22;11536;50.860;4.286;2022-11-13T16:33:38;13.50;99.90
22738;DHT22;11536;50.860;4.286;2022-11-13T16:36:04;13.50;99.90
22738;DHT22;11536;50.860;4.286;2022-11-13T16:38:29;13.40;99.90
22738;DHT22;11536;50.860;4.286;2022-11-13T16:40:55;13.30;99.90
22738;DHT22;11536;50.860;4.286;2022-11-13T16:43:20;13.20;99.90
22738;DHT22;11536;50.860;4.286;2022-11-13T16:45:46;13.20;99.90
22738;DHT22;11536;50.860;4.286;2022-11-13T16:48:13;13.10;99.90
22738;DHT22;11536;50.860;4.286;2022-11-13T16:50:39;13.00;99.90
22738;DHT22;11536;50.860;4.286;2022-11-13T16:53:05;12.90;99.90
22738;DHT22;11536;50.860;4.286;2022-11-13T16:55:31;12.90;99.90
22738;DHT22;11536;50.860;4.286;2022-11-13T16:57:59;12.80;99.90
22738;DHT22;11536;50.860;4.286;2022-11-13T17:00:25;12.80;99.90
22738;DHT22;11536;50.860;4.286;2022-11-13T17:02:51;12.70;99.90
22738;DHT22;11536;50.860;4.286;2022-11-13T17:05:21;12.70;99.90
22738;DHT22;11536;50.860;4.286;2022-11-13T17:07:47;12.60;99.90
22738;DHT22;11536;50.860;4.286;2022-11-13T17:10:17;12.50;99.90
22738;DHT22;11536;50.860;4.286;2022-11-13T17:12:52;12.50;99.90
22738;DHT22;11536;50.860;4.286;2022-11-13T17:15:19;12.40;99.90